Time;durP1;ratioP1;P1;durP2;ratioP2;P2;SDS_P1;SDS_P2;PMS_P1;PMS_P2;Temp;Humidity;BMP_temperature;BMP_pressure;BME280_temperature;BME280_humidity;BME280_pressure;Samples;Min_cycle;Max_cycle;Signal;HPM_P1;HPM_P2
2023/03/31 00:00:10;;;;;;;119.70;115.30;;;10.20;99.90;;;;;;5051393;28;20451;-79
2023/03/31 00:02:40;;;;;;;53.43;50.83;;;10.30;99.90;;;;;;5061234;28;20454;-79
2023/03/31 00:05:09;;;;;;;53.90;51.30;;;10.40;99.90;;;;;;5071843;28;20446;-78
2023/03/31 00:07:38;;;;;;;124.47;119.17;;;10.40;99.90;;;;;;5070731;28;20458;-79
2023/03/31 00:10:09;;;;;;;107.50;103.50;;;10.30;99.90;;;;;;5071330;28;20474;-79
2023/03/31 00:12:38;;;;;;;141.77;136.73;;;10.30;99.90;;;;;;5069325;28;20758;-79
2023/03/31 00:15:13;;;;;;;160.60;155.03;;;10.30;99.90;;;;;;5052546;28;20451;-79
2023/03/31 00:17:42;;;;;;;276.17;266.60;;;10.20;99.90;;;;;;5051524;28;20484;-79
2023/03/31 00:20:15;;;;;;;297.23;286.77;;;10.10;99.90;;;;;;5051123;28;20447;-79
2023/03/31 00:22:45;;;;;;;484.80;464.93;;;10.20;99.90;;;;;;5059688;28;20482;-79
2023/03/31 00:25:21;;;;;;;643.93;606.77;;;10.30;99.90;;;;;;5071345;28;20457;-79
2023/03/31 00:27:51;;;;;;;643.90;600.33;;;10.30;99.90;;;;;;5070136;28;20470;-79
2023/03/31 00:30:25;;;;;;;643.50;601.53;;;10.30;99.90;;;;;;5031409;28;20526;-79
2023/03/31 00:32:53;;;;;;;620.50;582.73;;;10.30;99.90;;;;;;5050208;28;20446;-79
2023/03/31 00:35:22;;;;;;;648.63;606.23;;;10.30;99.90;;;;;;5064673;28;20447;-78
2023/03/31 00:37:49;;;;;;;655.10;611.13;;;10.30;99.90;;;;;;5055115;28;20563;-78
2023/03/31 00:40:17;;;;;;;643.77;603.17;;;10.30;99.90;;;;;;5055487;28;20532;-78
2023/03/31 00:42:49;;;;;;;625.90;590.17;;;10.30;99.90;;;;;;5055081;28;20451;-78
2023/03/31 00:45:31;;;;;;;585.90;555.40;;;10.30;99.90;;;;;;5066857;28;20534;-78
2023/03/31 00:48:10;;;;;;;510.60;488.83;;;10.20;99.90;;;;;;5073403;28;20474;-78
2023/03/31 00:50:51;;;;;;;587.37;558.37;;;10.20;99.90;;;;;;5058747;28;21020;-79
2023/03/31 00:53:22;;;;;;;662.47;620.50;;;10.10;99.90;;;;;;5053193;28;20456;-78
2023/03/31 00:55:52;;;;;;;671.33;626.63;;;10.10;99.90;;;;;;5071109;28;20455;-78
2023/03/31 00:58:21;;;;;;;699.60;651.40;;;10.10;99.90;;;;;;5066780;28;20471;-78
2023/03/31 01:00:52;;;;;;;695.77;642.87;;;10.00;99.90;;;;;;5054436;28;20511;-78
2023/03/31 01:03:22;;;;;;;710.53;656.27;;;10.00;99.90;;;;;;5060866;28;20448;-78
2023/03/31 01:05:54;;;;;;;709.93;654.27;;;10.10;99.90;;;;;;5073237;28;20451;-78
2023/03/31 01:08:24;;;;;;;708.00;655.73;;;10.10;99.90;;;;;;5059215;28;20471;-77
2023/03/31 01:10:55;;;;;;;716.80;661.13;;;10.00;99.90;;;;;;5053171;28;20455;-78
2023/03/31 01:13:26;;;;;;;716.50;658.50;;;10.00;99.90;;;;;;5068268;28;20458;-78
2023/03/31 01:15:56;;;;;;;719.63;660.47;;;10.00;99.90;;;;;;5072848;28;20469;-78
2023/03/31 01:18:24;;;;;;;711.60;652.80;;;9.90;99.90;;;;;;5057875;28;20555;-78
2023/03/31 01:21:24;;;;;;;722.03;662.93;;;10.00;99.90;;;;;;5054194;28;20487;-77
2023/03/31 01:24:19;;;;;;;702.13;647.67;;;9.90;99.90;;;;;;5071698;28;21071;-77
2023/03/31 01:27:08;;;;;;;698.63;645.50;;;9.90;99.90;;;;;;5073486;28;20942;-78
2023/03/31 01:30:07;;;;;;;685.43;633.83;;;9.90;99.90;;;;;;5071419;28;20525;-78
2023/03/31 01:33:22;;;;;;;680.30;631.70;;;9.90;99.90;;;;;;5053344;28;20455;-78
2023/03/31 01:36:28;;;;;;;686.20;637.70;;;9.90;99.90;;;;;;5055143;28;20508;-78
2023/03/31 01:39:28;;;;;;;695.60;641.80;;;10.00;99.90;;;;;;5059493;28;20474;-78
2023/03/31 01:42:02;;;;;;;696.63;644.10;;;9.90;99.90;;;;;;5037323;28;20982;-77
2023/03/31 01:44:41;;;;;;;656.83;611.27;;;10.00;99.90;;;;;;5065019;28;20460;-78
2023/03/31 01:47:17;;;;;;;596.77;559.73;;;10.10;99.90;;;;;;5073309;28;20487;-79
2023/03/31 01:49:49;;;;;;;609.07;571.43;;;10.20;99.90;;;;;;5059743;28;20497;-78
2023/03/31 01:52:21;;;;;;;636.93;593.13;;;10.20;99.90;;;;;;5053487;28;21002;-79
2023/03/31 01:54:54;;;;;;;596.33;559.43;;;10.20;99.90;;;;;;5072964;28;20450;-78
2023/03/31 01:57:28;;;;;;;617.00;571.60;;;10.50;99.90;;;;;;5066134;28;20459;-78
2023/03/31 02:00:04;;;;;;;600.10;559.80;;;10.40;99.90;;;;;;5054290;28;20486;-79
2023/03/31 02:02:37;;;;;;;601.83;562.00;;;10.50;99.90;;;;;;5053467;28;20490;-79
2023/03/31 02:05:10;;;;;;;608.10;566.50;;;10.60;99.90;;;;;;5059847;28;20483;-79
2023/03/31 02:07:42;;;;;;;583.70;546.90;;;10.50;99.90;;;;;;5073032;28;20537;-79
2023/03/31 02:10:13;;;;;;;603.37;564.17;;;10.50;99.90;;;;;;5066023;28;21089;-79
2023/03/31 02:12:44;;;;;;;607.90;569.57;;;10.50;99.90;;;;;;5052739;28;20470;-79
2023/03/31 02:15:22;;;;;;;616.00;575.40;;;10.50;99.90;;;;;;5059443;28;20454;-79
2023/03/31 02:17:53;;;;;;;602.70;563.30;;;10.40;99.90;;;;;;5072943;28;20493;-79
2023/03/31 02:20:23;;;;;;;624.40;583.30;;;10.40;99.90;;;;;;5065486;28;20451;-79
2023/03/31 02:22:56;;;;;;;623.43;581.97;;;10.40;99.90;;;;;;5052677;28;20462;-79
2023/03/31 02:25:27;;;;;;;610.63;573.33;;;10.50;99.90;;;;;;5059686;28;20450;-79
2023/03/31 02:27:59;;;;;;;580.87;548.07;;;10.50;99.90;;;;;;5072553;28;20470;-79
2023/03/31 02:30:30;;;;;;;593.43;560.67;;;10.50;99.90;;;;;;5053371;28;20836;-79
2023/03/31 02:32:59;;;;;;;566.03;536.80;;;10.50;99.90;;;;;;5052633;28;20455;-79
2023/03/31 02:35:26;;;;;;;559.10;531.73;;;10.50;99.90;;;;;;5071041;28;20447;-77
2023/03/31 02:37:54;;;;;;;533.77;507.47;;;10.50;99.90;;;;;;5072568;28;20478;-79
2023/03/31 02:40:26;;;;;;;539.93;514.50;;;10.50;99.90;;;;;;5037329;28;21205;-78
2023/03/31 02:42:53;;;;;;;491.57;469.57;;;10.50;99.90;;;;;;5054897;28;20452;-79
2023/03/31 02:45:41;;;;;;;498.77;475.77;;;10.50;99.90;;;;;;5052213;28;20455;-79
2023/03/31 02:48:13;;;;;;;518.10;494.73;;;10.50;99.90;;;;;;5052268;28;20502;-79
2023/03/31 02:50:58;;;;;;;532.87;508.07;;;10.50;99.90;;;;;;5045288;28;20475;-79
2023/03/31 02:53:38;;;;;;;518.57;495.23;;;10.40;99.90;;;;;;5051886;28;20458;-78
2023/03/31 02:56:20;;;;;;;560.10;530.40;;;10.40;99.90;;;;;;5052475;28;20458;-79
2023/03/31 02:59:02;;;;;;;558.60;529.93;;;10.40;99.90;;;;;;5051483;28;20472;-78
2023/03/31 03:01:46;;;;;;;571.63;542.07;;;10.40;99.90;;;;;;5051127;28;20503;-79
2023/03/31 03:04:32;;;;;;;555.87;527.37;;;10.30;99.90;;;;;;5070234;28;20457;-78
2023/03/31 03:07:05;;;;;;;592.47;553.10;;;10.30;99.90;;;;;;5067661;28;20455;-78
2023/03/31 03:09:43;;;;;;;595.47;559.70;;;10.30;99.90;;;;;;5051671;28;20482;-79
2023/03/31 03:12:16;;;;;;;592.37;558.17;;;10.20;99.90;;;;;;5063957;28;20535;-78
2023/03/31 03:14:51;;;;;;;544.90;517.60;;;10.20;99.90;;;;;;5059441;28;20809;-79
2023/03/31 03:17:25;;;;;;;490.10;468.13;;;10.30;99.90;;;;;;5070020;28;20461;-78
2023/03/31 03:19:56;;;;;;;459.37;440.00;;;10.40;99.90;;;;;;5071299;28;20480;-78
2023/03/31 03:22:23;;;;;;;482.13;460.87;;;10.30;99.90;;;;;;5051835;28;20534;-78
2023/03/31 03:24:55;;;;;;;483.87;462.80;;;10.30;99.90;;;;;;5051814;28;20459;-78
2023/03/31 03:27:22;;;;;;;556.30;527.70;;;10.30;99.90;;;;;;5051909;28;20451;-78
2023/03/31 03:29:53;;;;;;;563.93;534.83;;;10.20;99.90;;;;;;5051595;28;20477;-78
2023/03/31 03:32:22;;;;;;;599.67;565.30;;;10.20;99.90;;;;;;5056911;28;20505;-78
2023/03/31 03:34:49;;;;;;;640.60;601.67;;;10.10;99.90;;;;;;5050214;28;20455;-78
2023/03/31 03:37:16;;;;;;;640.93;601.67;;;10.00;99.90;;;;;;5071583;28;20979;-78
2023/03/31 03:39:43;;;;;;;651.20;610.23;;;10.10;99.90;;;;;;5071792;28;20549;-78
2023/03/31 03:42:14;;;;;;;667.93;622.57;;;10.00;99.90;;;;;;5063183;28;20456;-78
2023/03/31 03:44:43;;;;;;;676.00;627.70;;;10.00;99.90;;;;;;5052325;28;20451;-78
2023/03/31 03:47:12;;;;;;;687.50;637.40;;;10.00;99.90;;;;;;5052331;28;20483;-78
2023/03/31 03:49:41;;;;;;;700.97;648.97;;;10.00;99.90;;;;;;5050552;28;20490;-78
2023/03/31 03:52:08;;;;;;;702.83;649.87;;;9.90;99.90;;;;;;5051402;28;20472;-78
2023/03/31 03:54:36;;;;;;;695.30;640.97;;;9.90;99.90;;;;;;5051357;28;20513;-78
2023/03/31 03:57:06;;;;;;;689.93;636.17;;;9.90;99.90;;;;;;5051701;28;20456;-78
2023/03/31 03:59:34;;;;;;;680.27;630.03;;;9.90;99.90;;;;;;5051875;28;20467;-79
2023/03/31 04:02:03;;;;;;;664.73;616.33;;;10.00;99.90;;;;;;5048446;28;20513;-78
2023/03/31 04:07:14;;;;;;;500.10;477.60;;;10.20;99.90;;;;;;5071542;28;20454;-78
2023/03/31 04:09:50;;;;;;;420.07;402.40;;;10.40;99.90;;;;;;5067895;28;20466;-79
2023/03/31 04:12:21;;;;;;;324.77;312.73;;;10.50;99.90;;;;;;5065376;28;20463;-79
2023/03/31 04:14:50;;;;;;;283.13;272.83;;;10.60;99.90;;;;;;5055089;28;20854;-79
2023/03/31 04:17:31;;;;;;;317.57;306.47;;;10.60;99.90;;;;;;5054983;28;20458;-79
2023/03/31 04:20:00;;;;;;;315.50;304.60;;;10.60;99.90;;;;;;5035231;28;20551;-78
2023/03/31 04:22:33;;;;;;;264.53;255.63;;;10.60;99.90;;;;;;5055443;28;20447;-79
2023/03/31 04:25:15;;;;;;;336.77;325.07;;;10.40;99.90;;;;;;5054735;28;20896;-79
2023/03/31 04:27:49;;;;;;;210.33;203.40;;;10.30;99.90;;;;;;5055077;28;20471;-80
2023/03/31 04:30:31;;;;;;;177.53;171.73;;;10.50;99.90;;;;;;5067439;28;20469;-79
2023/03/31 04:33:00;;;;;;;266.03;257.10;;;10.50;99.90;;;;;;5074817;28;20461;-78
2023/03/31 04:35:41;;;;;;;332.23;320.53;;;10.40;99.90;;;;;;5072433;28;20553;-78
2023/03/31 04:38:09;;;;;;;307.63;297.13;;;10.30;99.90;;;;;;5075277;28;20500;-78
2023/03/31 04:40:36;;;;;;;381.00;367.10;;;10.20;99.90;;;;;;5073394;28;20957;-78
2023/03/31 04:43:03;;;;;;;399.63;384.53;;;10.20;99.90;;;;;;5074583;28;21090;-79
2023/03/31 04:45:30;;;;;;;396.33;381.63;;;10.10;99.90;;;;;;5073424;28;20522;-79
2023/03/31 04:47:57;;;;;;;390.53;376.03;;;10.00;99.90;;;;;;5074408;28;20584;-78
2023/03/31 04:50:24;;;;;;;362.33;349.23;;;9.90;99.90;;;;;;5056967;28;20475;-79
2023/03/31 04:52:51;;;;;;;398.93;384.10;;;10.00;99.90;;;;;;5059575;28;20450;-78
2023/03/31 04:55:20;;;;;;;337.50;325.33;;;9.90;99.90;;;;;;5069320;28;20517;-78
2023/03/31 04:57:47;;;;;;;366.00;353.03;;;9.90;99.90;;;;;;5072345;28;20473;-80
2023/03/31 05:00:18;;;;;;;383.13;369.40;;;9.90;99.90;;;;;;5074500;28;20457;-78
2023/03/31 05:02:45;;;;;;;414.23;398.83;;;9.80;99.90;;;;;;5071510;28;20457;-78
2023/03/31 05:05:14;;;;;;;413.60;397.57;;;9.80;99.90;;;;;;5059253;28;20451;-78
2023/03/31 05:07:41;;;;;;;408.37;392.93;;;9.80;99.90;;;;;;5060414;28;20490;-78
2023/03/31 05:10:11;;;;;;;357.80;344.90;;;9.80;99.90;;;;;;5057984;28;20471;-78
2023/03/31 05:12:39;;;;;;;359.80;346.90;;;9.90;99.90;;;;;;5063130;28;20462;-79
2023/03/31 05:15:10;;;;;;;325.67;313.53;;;9.90;99.90;;;;;;5055380;28;20450;-79
2023/03/31 05:17:37;;;;;;;253.27;244.77;;;10.00;99.90;;;;;;5069218;28;20454;-77
2023/03/31 05:20:07;;;;;;;290.30;279.67;;;10.10;99.90;;;;;;5053904;28;20455;-78
2023/03/31 05:22:35;;;;;;;307.33;296.57;;;10.10;99.90;;;;;;5055016;28;20482;-78
2023/03/31 05:25:02;;;;;;;276.90;267.60;;;10.10;99.90;;;;;;5053790;28;20455;-78
2023/03/31 05:27:30;;;;;;;289.97;279.73;;;10.20;99.90;;;;;;5068492;28;20446;-79
2023/03/31 05:30:06;;;;;;;250.67;242.33;;;10.20;99.90;;;;;;5073828;28;20478;-79
2023/03/31 05:32:33;;;;;;;262.73;253.27;;;10.20;99.90;;;;;;5057955;28;20458;-79
2023/03/31 05:35:01;;;;;;;192.93;186.43;;;10.30;99.90;;;;;;5057123;28;21100;-79
2023/03/31 05:37:27;;;;;;;219.50;212.17;;;10.40;99.90;;;;;;5073376;28;20541;-78
2023/03/31 05:39:54;;;;;;;176.83;170.87;;;10.50;99.90;;;;;;5072525;28;20450;-79
2023/03/31 05:42:21;;;;;;;183.87;177.63;;;10.60;99.90;;;;;;5058388;28;20451;-78
2023/03/31 05:44:48;;;;;;;146.63;141.07;;;10.60;99.90;;;;;;5064492;28;20442;-78
2023/03/31 05:47:17;;;;;;;140.63;135.70;;;10.60;99.90;;;;;;5058963;28;20957;-78
2023/03/31 05:49:44;;;;;;;165.93;160.23;;;10.70;99.90;;;;;;5066473;28;20475;-78
2023/03/31 05:52:14;;;;;;;142.53;137.83;;;10.60;99.90;;;;;;5063617;28;20443;-82
2023/03/31 05:54:41;;;;;;;129.47;125.00;;;10.60;99.90;;;;;;5063578;28;20450;-78
2023/03/31 05:57:08;;;;;;;109.07;104.97;;;10.50;99.90;;;;;;5054676;28;20458;-78
2023/03/31 05:59:35;;;;;;;172.27;165.87;;;10.50;99.90;;;;;;5053080;28;20471;-78
2023/03/31 06:02:02;;;;;;;171.00;165.07;;;10.40;99.90;;;;;;5056949;28;20450;-79
2023/03/31 06:04:31;;;;;;;133.63;129.17;;;10.40;99.90;;;;;;5058574;28;20450;-78
2023/03/31 06:06:58;;;;;;;188.83;182.73;;;10.40;99.90;;;;;;5056844;28;20883;-79
2023/03/31 06:09:25;;;;;;;147.83;143.07;;;10.40;99.90;;;;;;5052542;28;20586;-78
2023/03/31 06:11:52;;;;;;;167.80;162.20;;;10.40;99.90;;;;;;5052010;28;20536;-78
2023/03/31 06:14:19;;;;;;;111.80;107.90;;;10.50;99.90;;;;;;5052850;28;20452;-78
2023/03/31 06:16:47;;;;;;;151.27;146.33;;;10.50;99.90;;;;;;5062804;28;20450;-79
2023/03/31 06:19:15;;;;;;;190.97;184.47;;;10.50;99.90;;;;;;5072975;28;20501;-79
2023/03/31 06:21:44;;;;;;;171.00;164.87;;;10.40;99.90;;;;;;5068181;28;20448;-79
2023/03/31 06:24:11;;;;;;;254.70;246.13;;;10.50;99.90;;;;;;5052724;28;21026;-78
2023/03/31 06:26:37;;;;;;;219.80;212.70;;;10.30;99.90;;;;;;5057738;28;20458;-79
2023/03/31 06:29:05;;;;;;;251.83;243.87;;;10.40;99.90;;;;;;5055462;28;20489;-79
2023/03/31 06:31:31;;;;;;;305.67;295.47;;;10.30;99.90;;;;;;5065627;28;20479;-78
2023/03/31 06:36:45;;;;;;;225.90;218.40;;;10.40;99.90;;;;;;5231153;22;20487;-78
2023/03/31 06:39:12;;;;;;;240.93;233.23;;;10.40;99.90;;;;;;5052343;28;20570;-79
2023/03/31 06:41:39;;;;;;;266.53;257.47;;;10.40;99.90;;;;;;5052934;28;20475;-78
2023/03/31 06:44:06;;;;;;;247.07;238.90;;;10.40;99.90;;;;;;5052346;28;20534;-78
2023/03/31 06:46:35;;;;;;;255.77;247.37;;;10.50;99.90;;;;;;5052460;28;21026;-77
2023/03/31 06:49:02;;;;;;;226.10;218.90;;;10.50;99.90;;;;;;5052214;28;20467;-78
2023/03/31 06:51:29;;;;;;;230.33;223.13;;;10.60;99.90;;;;;;5052699;28;20483;-78
2023/03/31 06:53:57;;;;;;;204.20;197.57;;;10.60;99.90;;;;;;5052358;28;20519;-78
2023/03/31 06:56:24;;;;;;;211.17;204.30;;;10.70;99.90;;;;;;5052387;28;20463;-78
2023/03/31 06:58:51;;;;;;;214.30;207.10;;;10.80;99.90;;;;;;5052379;28;20487;-77
2023/03/31 07:01:18;;;;;;;203.00;196.33;;;10.80;99.90;;;;;;5052491;28;20542;-78
2023/03/31 07:03:44;;;;;;;167.63;162.20;;;10.90;99.90;;;;;;5033788;28;20456;-77
2023/03/31 07:06:14;;;;;;;177.33;171.50;;;11.00;99.90;;;;;;5052311;28;20461;-78
2023/03/31 07:08:41;;;;;;;161.67;156.23;;;11.10;99.90;;;;;;5051524;28;20562;-78
2023/03/31 07:11:09;;;;;;;143.60;138.60;;;11.10;99.90;;;;;;5051806;28;20479;-78
2023/03/31 07:13:36;;;;;;;113.93;109.63;;;11.20;99.90;;;;;;5051636;28;20460;-77
2023/03/31 07:16:03;;;;;;;101.97;98.37;;;11.20;99.90;;;;;;5051829;28;20965;-78
2023/03/31 07:18:33;;;;;;;102.37;98.63;;;11.30;99.90;;;;;;5050274;28;20467;-78
2023/03/31 07:21:00;;;;;;;92.37;89.07;;;11.50;99.90;;;;;;5051664;28;20614;-78
2023/03/31 07:23:27;;;;;;;52.00;49.83;;;11.90;99.90;;;;;;5051193;28;20538;-78
2023/03/31 07:25:54;;;;;;;28.97;27.53;;;12.10;99.90;;;;;;5050889;28;20462;-77
2023/03/31 07:28:22;;;;;;;13.80;13.00;;;12.30;99.90;;;;;;5033540;28;20479;-78
2023/03/31 07:30:49;;;;;;;11.23;10.53;;;12.20;99.90;;;;;;5049908;28;20557;-77
2023/03/31 07:33:16;;;;;;;9.67;8.47;;;12.30;99.90;;;;;;5051278;28;20455;-77
2023/03/31 07:35:43;;;;;;;9.43;8.73;;;12.50;99.90;;;;;;5051494;28;20474;-77
2023/03/31 07:38:11;;;;;;;6.80;6.20;;;12.60;99.90;;;;;;5051316;28;20851;-77
2023/03/31 07:40:38;;;;;;;6.57;5.83;;;12.70;99.90;;;;;;5051389;28;20451;-78
2023/03/31 07:43:05;;;;;;;7.23;5.90;;;12.90;99.90;;;;;;5051306;28;20462;-78
2023/03/31 07:45:36;;;;;;;6.03;4.03;;;13.00;99.90;;;;;;5051778;28;20459;-77
2023/03/31 07:48:03;;;;;;;5.90;3.97;;;13.20;99.90;;;;;;5038017;28;20467;-78
2023/03/31 07:50:29;;;;;;;5.63;1.77;;;13.50;99.90;;;;;;5055331;28;20483;-78
2023/03/31 07:52:56;;;;;;;4.83;1.80;;;13.70;99.90;;;;;;5054812;28;20455;-78
2023/03/31 07:55:25;;;;;;;5.13;1.40;;;13.80;99.90;;;;;;5055232;28;20455;-78
2023/03/31 07:57:51;;;;;;;8.70;1.67;;;14.00;99.90;;;;;;5055623;28;20475;-78
2023/03/31 08:00:20;;;;;;;15.90;1.70;;;14.30;99.90;;;;;;5055722;28;20987;-77
2023/03/31 08:02:49;;;;;;;6.37;1.63;;;14.20;99.90;;;;;;5055997;28;20533;-78
2023/03/31 08:05:18;;;;;;;8.40;1.50;;;14.10;99.90;;;;;;5055763;28;20483;-77
2023/03/31 08:07:50;;;;;;;9.33;1.73;;;13.90;99.90;;;;;;5055286;28;20536;-77
2023/03/31 08:10:20;;;;;;;4.33;1.50;;;13.80;99.90;;;;;;5055271;28;20455;-77
2023/03/31 08:12:47;;;;;;;8.40;1.90;;;13.40;99.90;;;;;;5055124;28;20525;-77
2023/03/31 08:15:14;;;;;;;8.80;2.33;;;13.10;99.90;;;;;;5054992;28;20530;-77
2023/03/31 08:17:41;;;;;;;9.93;3.27;;;12.80;99.90;;;;;;5055125;28;20542;-77
2023/03/31 08:20:11;;;;;;;7.80;2.90;;;12.70;99.90;;;;;;5055044;28;20458;-77
2023/03/31 08:22:39;;;;;;;10.80;2.60;;;12.60;99.90;;;;;;5054887;28;20447;-77
2023/03/31 08:25:08;;;;;;;8.20;2.47;;;12.70;99.90;;;;;;5054642;28;20534;-77
2023/03/31 08:27:35;;;;;;;14.10;3.20;;;12.70;99.90;;;;;;5054959;28;20538;-77
2023/03/31 08:30:03;;;;;;;7.77;3.23;;;12.80;99.90;;;;;;5054944;28;20470;-77
2023/03/31 08:32:31;;;;;;;12.43;3.47;;;12.90;99.90;;;;;;5054436;28;20533;-77
2023/03/31 08:34:57;;;;;;;7.63;2.40;;;13.20;99.90;;;;;;5036538;28;20490;-77
2023/03/31 08:37:27;;;;;;;7.63;2.50;;;13.40;99.90;;;;;;5055015;28;20451;-77
2023/03/31 08:39:54;;;;;;;10.97;2.67;;;13.70;99.90;;;;;;5054812;28;20637;-78
2023/03/31 08:42:24;;;;;;;10.60;2.13;;;13.90;99.90;;;;;;5054609;28;20443;-77
2023/03/31 08:44:57;;;;;;;20.00;3.27;;;14.10;99.90;;;;;;5054450;28;20490;-78
2023/03/31 08:47:27;;;;;;;8.83;2.50;;;14.50;99.90;;;;;;5054075;28;20462;-78
2023/03/31 08:49:59;;;;;;;7.30;1.90;;;15.00;99.90;;;;;;5054112;28;20456;-78
2023/03/31 08:52:32;;;;;;;8.57;2.43;;;15.40;99.90;;;;;;5054303;28;20476;-78
2023/03/31 08:55:03;;;;;;;15.50;3.67;;;15.80;99.90;;;;;;5054174;28;20455;-77
2023/03/31 08:57:36;;;;;;;8.57;1.70;;;15.80;96.70;;;;;;5052911;28;20808;-78
2023/03/31 09:00:05;;;;;;;11.13;2.00;;;15.60;95.60;;;;;;5054223;28;20473;-78
2023/03/31 09:02:47;;;;;;;11.60;2.47;;;15.50;95.50;;;;;;5053992;28;20831;-78
2023/03/31 09:05:36;;;;;;;7.20;2.10;;;15.60;96.00;;;;;;5054333;28;20457;-77
2023/03/31 09:08:14;;;;;;;9.17;4.83;;;15.40;94.70;;;;;;5033134;28;20478;-78
2023/03/31 09:10:54;;;;;;;11.37;2.47;;;15.60;95.40;;;;;;5053357;28;20458;-78
2023/03/31 09:13:44;;;;;;;9.30;1.97;;;15.50;95.90;;;;;;5053380;28;20508;-78
2023/03/31 09:16:14;;;;;;;10.87;2.33;;;15.40;94.90;;;;;;5053600;28;20449;-77
2023/03/31 09:18:45;;;;;;;10.73;2.00;;;15.30;94.70;;;;;;5053212;28;20564;-78
2023/03/31 09:21:18;;;;;;;9.30;2.90;;;15.50;95.60;;;;;;5053173;28;20454;-78
2023/03/31 09:23:55;;;;;;;13.30;2.17;;;15.60;95.00;;;;;;5053397;28;20457;-77
2023/03/31 09:26:34;;;;;;;15.30;2.27;;;15.50;93.20;;;;;;5053308;28;20532;-78
2023/03/31 09:29:05;;;;;;;9.07;2.07;;;15.70;93.30;;;;;;5053201;28;20505;-78
2023/03/31 09:31:32;;;;;;;15.20;2.33;;;16.10;93.50;;;;;;5052960;28;20951;-78
2023/03/31 09:34:02;;;;;;;13.67;2.63;;;16.40;93.20;;;;;;5052645;28;20836;-77
2023/03/31 09:36:29;;;;;;;13.13;2.83;;;16.90;92.60;;;;;;5035073;28;20475;-78
2023/03/31 09:38:57;;;;;;;11.53;2.43;;;17.00;89.50;;;;;;5035046;28;20564;-78
2023/03/31 09:41:24;;;;;;;5.10;1.37;;;17.20;90.40;;;;;;5052654;28;20486;-78
2023/03/31 09:43:51;;;;;;;12.20;2.10;;;16.80;86.60;;;;;;5035650;28;20488;-78
2023/03/31 09:46:24;;;;;;;13.90;2.30;;;16.70;87.70;;;;;;5035660;28;20467;-78
2023/03/31 09:48:55;;;;;;;12.50;2.93;;;16.60;89.10;;;;;;5052871;28;20477;-78
2023/03/31 09:51:29;;;;;;;13.07;2.27;;;16.20;88.30;;;;;;5053408;28;20530;-78
2023/03/31 09:54:04;;;;;;;10.20;2.10;;;16.20;90.10;;;;;;5053186;28;20463;-78
2023/03/31 09:56:34;;;;;;;7.37;1.70;;;15.80;89.00;;;;;;5053487;28;20446;-77
2023/03/31 09:59:03;;;;;;;11.97;2.33;;;15.50;89.80;;;;;;5053461;28;20532;-78
2023/03/31 10:01:30;;;;;;;7.90;1.97;;;15.60;90.80;;;;;;5053755;28;20529;-77
2023/03/31 10:03:57;;;;;;;11.40;2.37;;;15.40;93.20;;;;;;5052790;28;20552;-77
2023/03/31 10:06:24;;;;;;;9.47;3.00;;;15.10;94.70;;;;;;5052886;28;20479;-77
2023/03/31 10:08:55;;;;;;;9.27;2.10;;;15.20;96.20;;;;;;5052279;28;20846;-77
2023/03/31 10:11:26;;;;;;;13.47;2.10;;;15.20;94.60;;;;;;5052772;28;20485;-77
2023/03/31 10:13:59;;;;;;;9.13;2.60;;;15.50;93.20;;;;;;5052874;28;20454;-78
2023/03/31 10:16:30;;;;;;;8.03;2.07;;;15.90;94.60;;;;;;5052883;28;21224;-77
2023/03/31 10:19:12;;;;;;;15.33;4.07;;;15.80;91.70;;;;;;5052634;28;20479;-77
2023/03/31 10:21:40;;;;;;;10.90;2.70;;;16.40;93.60;;;;;;5052612;28;20539;-77
2023/03/31 10:24:09;;;;;;;13.53;2.30;;;16.50;91.90;;;;;;5052427;28;20452;-77
2023/03/31 10:26:37;;;;;;;10.03;2.03;;;17.00;90.00;;;;;;5052788;28;20463;-78
2023/03/31 10:29:12;;;;;;;9.07;1.90;;;18.20;90.70;;;;;;5052294;28;20480;-78
2023/03/31 10:31:39;;;;;;;14.20;3.47;;;18.70;84.90;;;;;;5052119;28;20512;-78
2023/03/31 10:34:08;;;;;;;14.07;4.00;;;18.50;77.90;;;;;;5052061;28;20460;-78
2023/03/31 10:36:35;;;;;;;11.73;1.87;;;18.10;78.80;;;;;;5052180;28;20465;-78
2023/03/31 10:39:06;;;;;;;8.83;2.20;;;17.30;79.70;;;;;;5052309;28;20484;-77
2023/03/31 10:41:33;;;;;;;10.40;2.00;;;16.90;78.80;;;;;;5052194;28;20448;-77
2023/03/31 10:44:04;;;;;;;13.20;3.63;;;16.20;82.60;;;;;;5051986;28;20454;-77
2023/03/31 10:46:42;;;;;;;14.77;3.37;;;15.80;86.00;;;;;;5051964;28;20453;-77
2023/03/31 10:49:16;;;;;;;5.13;1.80;;;15.10;89.40;;;;;;5052149;28;20474;-78
2023/03/31 10:51:49;;;;;;;11.07;2.20;;;13.80;95.80;;;;;;5052224;28;20485;-78
2023/03/31 10:54:16;;;;;;;11.57;2.13;;;12.30;99.90;;;;;;5051842;28;20456;-77
2023/03/31 10:56:45;;;;;;;6.10;1.63;;;12.00;99.90;;;;;;5051958;28;20491;-78
2023/03/31 10:59:29;;;;;;;13.07;2.53;;;11.50;99.90;;;;;;5051886;28;20536;-78
2023/03/31 11:02:16;;;;;;;4.73;1.17;;;11.80;99.90;;;;;;5047292;28;21010;-78
2023/03/31 11:04:53;;;;;;;8.70;2.43;;;11.70;99.90;;;;;;5052627;28;20452;-78
2023/03/31 11:07:38;;;;;;;13.30;6.50;;;10.80;99.90;;;;;;5047047;28;20457;-77
2023/03/31 11:10:21;;;;;;;11.87;10.30;;;10.50;99.90;;;;;;5052399;28;20451;-77
2023/03/31 11:12:57;;;;;;;21.67;19.97;;;10.50;99.90;;;;;;5051812;28;20570;-76
2023/03/31 11:15:30;;;;;;;24.03;22.53;;;10.50;99.90;;;;;;5051852;28;20466;-77
2023/03/31 11:18:24;;;;;;;22.83;21.20;;;10.70;99.90;;;;;;5051826;28;20475;-76
2023/03/31 11:20:58;;;;;;;24.63;22.80;;;10.90;99.90;;;;;;5051080;28;20547;-77
2023/03/31 11:23:46;;;;;;;10.80;10.00;;;11.30;99.90;;;;;;5051385;28;20457;-77
2023/03/31 11:26:21;;;;;;;6.13;4.40;;;11.60;99.90;;;;;;5051010;28;20813;-77
2023/03/31 11:29:15;;;;;;;6.77;4.43;;;12.00;99.90;;;;;;5051544;28;20998;-77
2023/03/31 11:31:52;;;;;;;6.27;2.70;;;12.30;99.90;;;;;;5048609;28;20519;-77
2023/03/31 11:34:46;;;;;;;9.93;3.37;;;12.50;99.90;;;;;;5051144;28;20454;-77
2023/03/31 11:37:34;;;;;;;11.03;3.00;;;12.70;99.90;;;;;;5034099;28;20462;-77
2023/03/31 11:40:16;;;;;;;15.53;2.90;;;13.00;99.90;;;;;;5051477;28;20487;-77
2023/03/31 11:42:49;;;;;;;9.43;3.17;;;13.30;99.90;;;;;;5050573;28;20455;-77
2023/03/31 11:45:21;;;;;;;7.17;2.33;;;13.70;99.90;;;;;;5051414;28;20457;-77
2023/03/31 11:47:56;;;;;;;11.70;4.50;;;14.10;99.90;;;;;;5051164;28;20476;-77
2023/03/31 11:50:26;;;;;;;8.93;4.77;;;14.60;99.90;;;;;;5049400;28;20876;-77
2023/03/31 11:52:58;;;;;;;11.83;5.40;;;15.10;99.90;;;;;;5050385;28;21011;-77
2023/03/31 11:55:28;;;;;;;9.80;3.40;;;15.40;99.90;;;;;;5050590;28;20462;-77
2023/03/31 11:58:02;;;;;;;9.20;4.17;;;15.80;99.90;;;;;;5050942;28;20485;-77
2023/03/31 12:00:34;;;;;;;10.73;2.90;;;15.70;99.20;;;;;;5050965;28;20462;-77
2023/03/31 12:03:10;;;;;;;11.50;2.20;;;15.70;99.90;;;;;;5050958;28;20454;-78
2023/03/31 12:05:43;;;;;;;7.50;3.00;;;15.30;99.30;;;;;;5051316;28;20493;-78
2023/03/31 12:08:15;;;;;;;13.57;2.73;;;14.90;99.90;;;;;;5051244;28;20483;-78
2023/03/31 12:10:46;;;;;;;13.57;2.70;;;14.70;99.90;;;;;;5051177;28;20456;-78
2023/03/31 12:13:40;;;;;;;11.80;2.63;;;14.90;99.90;;;;;;5032934;28;20562;-78
2023/03/31 12:16:15;;;;;;;13.60;2.90;;;15.30;97.00;;;;;;5033181;28;20461;-83
2023/03/31 12:18:51;;;;;;;12.23;2.73;;;16.10;97.20;;;;;;5051177;28;20481;-77
2023/03/31 12:21:20;;;;;;;10.70;2.20;;;16.40;94.50;;;;;;5051208;28;20489;-78
2023/03/31 12:23:46;;;;;;;5.70;1.53;;;16.30;91.40;;;;;;5050870;28;20459;-77
2023/03/31 12:26:37;;;;;;;15.17;2.20;;;16.40;89.70;;;;;;5050935;28;20463;-78
2023/03/31 12:29:12;;;;;;;7.07;1.90;;;16.50;88.60;;;;;;5050810;28;20477;-77
2023/03/31 12:31:42;;;;;;;10.43;1.97;;;16.70;86.10;;;;;;5052423;28;20742;-78
2023/03/31 12:34:14;;;;;;;7.80;1.87;;;16.60;86.10;;;;;;5054578;28;20449;-78
2023/03/31 12:36:51;;;;;;;10.70;2.10;;;17.20;86.10;;;;;;5054514;28;20469;-78
2023/03/31 12:39:39;;;;;;;10.40;2.30;;;17.70;88.90;;;;;;5055301;28;20559;-78
2023/03/31 12:42:39;;;;;;;14.87;3.00;;;17.70;84.00;;;;;;5055266;28;20452;-78
2023/03/31 12:45:15;;;;;;;14.77;2.63;;;17.70;82.60;;;;;;5037105;28;20983;-81
2023/03/31 12:47:58;;;;;;;7.53;1.80;;;18.00;82.30;;;;;;5055213;28;20471;-81
2023/03/31 12:50:50;;;;;;;16.30;2.87;;;18.20;82.00;;;;;;5055550;28;20449;-81
2023/03/31 12:53:26;;;;;;;7.10;1.97;;;18.10;81.30;;;;;;5054456;28;20480;-81